createdAt,value
2022-12-18T00:01:35.823Z,30.03
2022-12-18T00:04:06.254Z,30.15
2022-12-18T00:06:39.218Z,28.98
2022-12-18T00:09:11.369Z,29.83
2022-12-18T00:11:43.416Z,28.80
2022-12-18T00:14:12.053Z,28.75
2022-12-18T00:16:39.113Z,29.02
2022-12-18T00:19:06.453Z,28.58
2022-12-18T00:21:39.332Z,28.75
2022-12-18T00:24:06.822Z,27.52
2022-12-18T00:26:39.904Z,28.23
2022-12-18T00:29:15.849Z,28.71
2022-12-18T00:31:43.438Z,28.60
2022-12-18T00:34:30.122Z,28.25
2022-12-18T00:36:59.862Z,28.24
2022-12-18T00:39:27.661Z,28.45
2022-12-18T00:41:54.835Z,28.46
2022-12-18T00:44:26.654Z,28.30
2022-12-18T00:46:56.427Z,28.77
2022-12-18T00:49:23.399Z,28.76
2022-12-18T00:51:51.069Z,27.43
2022-12-18T00:54:17.869Z,28.48
2022-12-18T00:56:49.460Z,28.04
2022-12-18T00:59:18.735Z,28.09
2022-12-18T01:01:46.121Z,28.13
2022-12-18T01:04:18.161Z,26.90
2022-12-18T01:06:45.199Z,27.82
2022-12-18T01:09:14.874Z,27.35
2022-12-18T01:11:42.623Z,27.43
2022-12-18T01:14:11.159Z,27.62
2022-12-18T01:16:40.041Z,27.79
2022-12-18T01:19:07.511Z,26.75
2022-12-18T01:21:34.695Z,26.34
2022-12-18T01:24:04.463Z,27.65
2022-12-18T01:26:31.455Z,27.21
2022-12-18T01:29:01.199Z,27.41
2022-12-18T01:31:32.046Z,27.52
2022-12-18T01:34:01.095Z,28.35
2022-12-18T01:36:31.313Z,27.90
2022-12-18T01:38:58.456Z,28.39
2022-12-18T01:41:27.960Z,27.62
2022-12-18T01:44:00.782Z,28.41
2022-12-18T01:46:33.582Z,28.87
2022-12-18T01:49:01.532Z,28.21
2022-12-18T01:51:29.754Z,28.45
2022-12-18T01:53:56.946Z,28.70
2022-12-18T01:56:29.988Z,28.18
2022-12-18T01:59:05.719Z,28.54
2022-12-18T02:01:33.540Z,28.99
2022-12-18T02:04:23.237Z,28.94
2022-12-18T02:07:12.805Z,28.43
2022-12-18T02:10:03.199Z,29.67
2022-12-18T02:13:05.341Z,28.75
2022-12-18T02:16:09.494Z,28.85
2022-12-18T02:18:42.009Z,29.13
2022-12-18T02:21:33.026Z,29.44
2022-12-18T02:24:53.465Z,29.46
2022-12-18T02:27:25.868Z,29.48
2022-12-18T02:29:58.537Z,29.68
2022-12-18T02:32:33.609Z,29.33
2022-12-18T02:35:07.346Z,29.20
2022-12-18T02:37:37.034Z,30.03
2022-12-18T02:40:10.334Z,29.39
2022-12-18T02:42:42.410Z,29.60
2022-12-18T02:45:09.557Z,29.57
2022-12-18T02:47:43.445Z,29.63
2022-12-18T02:50:39.082Z,30.28
2022-12-18T02:53:57.001Z,28.98
2022-12-18T02:56:53.215Z,29.67
2022-12-18T02:59:38.609Z,28.76
2022-12-18T03:02:34.767Z,29.82
2022-12-18T03:05:15.879Z,29.22
2022-12-18T03:08:02.604Z,29.40
2022-12-18T03:10:30.925Z,29.36
2022-12-18T03:13:06.108Z,28.29
2022-12-18T03:15:46.697Z,29.25
2022-12-18T03:18:22.588Z,28.69
2022-12-18T03:20:49.757Z,28.65
2022-12-18T03:23:25.968Z,28.77
2022-12-18T03:25:56.477Z,29.00
2022-12-18T03:28:28.686Z,29.31
2022-12-18T03:30:58.543Z,30.30
2022-12-18T03:33:35.617Z,29.79
2022-12-18T03:36:06.546Z,28.60
2022-12-18T03:38:34.327Z,28.26
2022-12-18T03:41:30.577Z,29.14
2022-12-18T03:44:23.269Z,28.64
2022-12-18T03:47:22.542Z,28.56
2022-12-18T03:50:09.598Z,29.73
2022-12-18T03:53:24.207Z,29.73
2022-12-18T03:55:53.553Z,30.21
2022-12-18T03:58:26.431Z,29.74
2022-12-18T04:00:57.270Z,29.45
2022-12-18T04:03:28.064Z,30.31
2022-12-18T04:05:55.778Z,29.89
2022-12-18T04:08:28.890Z,29.03
2022-12-18T04:10:55.913Z,29.34
2022-12-18T04:13:44.789Z,29.16
2022-12-18T04:16:31.466Z,29.26
2022-12-18T04:19:00.939Z,29.91
2022-12-18T04:21:28.007Z,29.50
2022-12-18T04:24:00.892Z,29.28
2022-12-18T04:26:27.972Z,28.00
2022-12-18T04:28:57.561Z,29.39
2022-12-18T04:31:24.589Z,28.23
2022-12-18T04:33:51.565Z,29.12
2022-12-18T04:36:23.622Z,29.51
2022-12-18T04:38:53.449Z,28.95
2022-12-18T04:41:20.429Z,29.79
2022-12-18T04:43:52.246Z,28.94
2022-12-18T04:46:21.910Z,28.90
2022-12-18T04:48:49.287Z,30.74
2022-12-18T04:51:23.303Z,31.09
2022-12-18T04:53:53.208Z,30.94
2022-12-18T04:56:22.850Z,30.82
2022-12-18T04:58:52.684Z,30.42
2022-12-18T05:01:20.040Z,29.92
2022-12-18T05:03:49.865Z,30.59
2022-12-18T05:06:18.474Z,30.34
2022-12-18T05:08:50.414Z,30.72
2022-12-18T05:11:17.525Z,30.41
2022-12-18T05:13:44.952Z,31.05
2022-12-18T05:16:17.895Z,31.42
2022-12-18T05:18:44.930Z,31.27
2022-12-18T05:21:11.879Z,31.34
2022-12-18T05:23:41.381Z,30.43
2022-12-18T05:26:17.411Z,30.18
2022-12-18T05:28:50.082Z,29.87
2022-12-18T05:31:19.815Z,29.56
2022-12-18T05:33:52.659Z,30.39
2022-12-18T05:36:19.639Z,30.14
2022-12-18T05:38:49.414Z,30.67
2022-12-18T05:41:17.182Z,29.93
2022-12-18T05:43:50.157Z,28.96
2022-12-18T05:46:20.081Z,29.33
2022-12-18T05:48:47.339Z,30.38
2022-12-18T05:51:19.717Z,30.76
2022-12-18T05:53:48.801Z,29.98
2022-12-18T05:56:20.006Z,28.94
2022-12-18T05:58:53.741Z,29.69
2022-12-18T06:01:22.790Z,29.27
2022-12-18T06:03:49.914Z,30.02
2022-12-18T06:06:29.548Z,29.50
2022-12-18T06:08:57.780Z,29.64
2022-12-18T06:11:26.347Z,29.60
2022-12-18T06:13:59.030Z,30.32
2022-12-18T06:16:28.385Z,30.70
2022-12-18T06:19:01.970Z,28.94
2022-12-18T06:21:34.778Z,29.31
2022-12-18T06:24:03.165Z,30.14
2022-12-18T06:26:30.152Z,30.61
2022-12-18T06:29:03.022Z,31.55
2022-12-18T06:31:30.119Z,30.18
2022-12-18T06:33:57.879Z,31.37
2022-12-18T06:36:25.322Z,30.50
2022-12-18T06:38:52.240Z,29.76
2022-12-18T06:41:21.062Z,30.12
2022-12-18T06:43:49.359Z,29.53
2022-12-18T06:49:02.878Z,29.05
2022-12-18T06:51:29.912Z,29.17
2022-12-18T06:53:56.710Z,28.88
2022-12-18T06:56:23.669Z,28.25
2022-12-18T06:58:56.430Z,28.93
2022-12-18T07:01:24.298Z,30.01
2022-12-18T07:04:10.940Z,30.53
2022-12-18T07:06:39.948Z,29.37
2022-12-18T07:09:06.876Z,30.04
2022-12-18T07:11:34.343Z,29.35
2022-12-18T07:14:07.462Z,29.13
2022-12-18T07:16:39.368Z,28.27
2022-12-18T07:19:08.737Z,28.30
2022-12-18T07:21:35.450Z,26.76
2022-12-18T07:24:03.618Z,26.71
2022-12-18T07:26:30.430Z,28.15
2022-12-18T07:28:58.664Z,27.15
2022-12-18T07:31:25.817Z,27.41
2022-12-18T07:33:53.103Z,25.24
2022-12-18T07:36:20.200Z,26.59
2022-12-18T07:38:50.565Z,25.09
2022-12-18T07:41:18.828Z,24.95
2022-12-18T07:44:01.821Z,24.98
2022-12-18T07:46:28.800Z,24.94
2022-12-18T07:48:55.866Z,25.39
2022-12-18T07:51:23.683Z,23.45
2022-12-18T07:53:52.097Z,24.20
2022-12-18T07:56:28.732Z,24.42
2022-12-18T07:58:57.113Z,23.88
2022-12-18T08:01:24.080Z,23.32
2022-12-18T08:03:52.336Z,23.61
2022-12-18T08:06:23.933Z,23.99
2022-12-18T08:08:55.014Z,22.98
2022-12-18T08:11:22.645Z,23.79
2022-12-18T08:13:50.469Z,24.32
2022-12-18T08:16:17.466Z,24.35
2022-12-18T08:18:44.661Z,24.06
2022-12-18T08:21:21.459Z,23.41
2022-12-18T08:23:48.719Z,23.86
2022-12-18T08:26:16.170Z,24.23
2022-12-18T08:28:43.260Z,23.59
2022-12-18T08:31:10.219Z,24.47
2022-12-18T08:33:38.240Z,22.55
2022-12-18T08:36:09.753Z,22.39
2022-12-18T08:38:37.339Z,23.80
2022-12-18T08:41:06.402Z,24.34
2022-12-18T08:43:33.238Z,24.27
2022-12-18T08:46:00.351Z,25.21
2022-12-18T08:48:29.866Z,24.95
2022-12-18T08:51:00.535Z,24.73
2022-12-18T08:53:30.352Z,24.73
2022-12-18T08:56:01.421Z,23.75
2022-12-18T08:58:28.501Z,23.59
2022-12-18T09:01:04.464Z,23.33
2022-12-18T09:03:42.955Z,23.65
2022-12-18T09:06:10.102Z,22.89
2022-12-18T09:08:39.972Z,23.18
2022-12-18T09:11:12.816Z,23.34
2022-12-18T09:13:43.004Z,23.87
2022-12-18T09:19:35.890Z,25.18
2022-12-18T09:22:02.776Z,24.70
2022-12-18T09:24:34.682Z,25.24
2022-12-18T09:27:08.553Z,25.61
2022-12-18T09:29:35.933Z,25.66
2022-12-18T09:32:03.478Z,25.76
2022-12-18T09:34:31.918Z,25.80
2022-12-18T09:36:58.936Z,25.84
2022-12-18T09:39:25.885Z,25.42
2022-12-18T09:41:59.131Z,24.92
2022-12-18T09:44:45.954Z,26.03
2022-12-18T09:47:21.697Z,25.59
2022-12-18T09:49:51.026Z,25.53
2022-12-18T09:52:34.248Z,25.71
2022-12-18T09:55:06.913Z,26.09
2022-12-18T09:57:35.353Z,26.15
2022-12-18T10:00:17.928Z,25.65
2022-12-18T10:02:51.348Z,26.81
2022-12-18T10:05:22.080Z,26.63
2022-12-18T10:08:25.164Z,25.97
2022-12-18T10:10:58.455Z,25.81
2022-12-18T10:13:44.136Z,26.53
2022-12-18T10:16:14.873Z,26.72
2022-12-18T10:19:26.172Z,26.81
2022-12-18T10:22:16.613Z,25.38
2022-12-18T10:24:48.230Z,25.63
2022-12-18T10:27:19.897Z,24.58
2022-12-18T10:29:50.327Z,25.11
2022-12-18T10:32:22.355Z,24.97
2022-12-18T10:34:52.950Z,25.57
2022-12-18T10:37:26.770Z,23.38
2022-12-18T10:40:10.157Z,23.06
2022-12-18T10:42:37.001Z,23.69
2022-12-18T10:52:02.136Z,25.16
2022-12-18T10:54:29.931Z,24.88
2022-12-18T10:57:34.006Z,24.82
2022-12-18T11:00:13.187Z,24.91
2022-12-18T11:02:41.214Z,25.66
2022-12-18T11:05:34.333Z,24.74
2022-12-18T11:08:37.650Z,24.39
2022-12-18T11:11:06.509Z,25.57
2022-12-18T11:13:33.233Z,26.29
2022-12-18T11:16:03.102Z,25.09
2022-12-18T11:18:35.550Z,24.85
2022-12-18T11:21:10.006Z,24.64
2022-12-18T11:23:37.235Z,24.83
2022-12-18T11:26:09.592Z,24.97
2022-12-18T11:29:20.753Z,25.62
2022-12-18T11:31:48.548Z,25.68
2022-12-18T11:34:31.028Z,26.13
2022-12-18T11:36:58.959Z,25.77
2022-12-18T11:39:47.551Z,24.99
2022-12-18T11:42:25.516Z,25.18
2022-12-18T11:45:09.470Z,25.62
2022-12-18T11:47:46.505Z,26.36
2022-12-18T11:50:27.617Z,25.98
2022-12-18T11:53:02.934Z,25.98
2022-12-18T11:55:47.683Z,25.21
2022-12-18T11:58:45.896Z,25.82
2022-12-18T12:01:44.398Z,25.91
2022-12-18T12:04:52.451Z,26.62
2022-12-18T12:07:42.059Z,26.24
2022-12-18T12:10:46.537Z,25.51
2022-12-18T12:13:37.022Z,25.05
2022-12-18T12:16:21.232Z,25.01
2022-12-18T12:19:57.143Z,25.19
2022-12-18T12:23:03.560Z,25.00
2022-12-18T12:25:40.710Z,25.79
2022-12-18T12:28:13.523Z,25.95
2022-12-18T12:30:50.785Z,26.14
2022-12-18T12:33:35.051Z,25.58
2022-12-18T12:36:05.914Z,25.49
2022-12-18T12:38:38.382Z,26.23
2022-12-18T12:41:10.921Z,25.55
2022-12-18T12:46:36.490Z,25.44
2022-12-18T12:49:03.989Z,25.38
2022-12-18T12:51:35.181Z,25.33
2022-12-18T12:54:03.892Z,25.16
2022-12-18T12:56:44.509Z,25.01
2022-12-18T12:59:23.838Z,25.53
2022-12-18T13:02:13.616Z,24.84
2022-12-18T13:04:53.178Z,25.06
2022-12-18T13:07:25.560Z,25.84
2022-12-18T13:10:19.097Z,25.76
2022-12-18T13:13:07.318Z,24.50
2022-12-18T13:13:43.212Z,25.46
2022-12-18T13:15:48.498Z,24.32
2022-12-18T13:18:24.867Z,24.69
2022-12-18T13:21:13.782Z,25.19
2022-12-18T13:23:41.101Z,24.38
2022-12-18T13:26:08.105Z,24.05
2022-12-18T13:28:34.887Z,23.72
2022-12-18T13:31:02.074Z,24.45
2022-12-18T13:33:34.976Z,24.18
2022-12-18T13:36:04.081Z,24.13
2022-12-18T13:38:37.533Z,23.16
2022-12-18T13:41:38.154Z,23.61
2022-12-18T13:44:23.578Z,24.98
2022-12-18T13:46:51.195Z,24.99
2022-12-18T13:49:25.769Z,24.27
2022-12-18T13:51:57.278Z,24.05
2022-12-18T13:54:43.347Z,24.84
2022-12-18T13:57:33.429Z,24.78
2022-12-18T14:00:21.430Z,24.66
2022-12-18T14:02:48.327Z,25.23
2022-12-18T14:05:24.823Z,25.35
2022-12-18T14:08:27.539Z,24.91
2022-12-18T14:10:54.220Z,25.20
2022-12-18T14:13:38.424Z,25.93
2022-12-18T14:16:07.214Z,25.72
2022-12-18T14:18:45.466Z,25.55
2022-12-18T14:21:30.853Z,25.58
2022-12-18T14:24:04.721Z,26.64
2022-12-18T14:26:32.532Z,26.17
2022-12-18T14:29:00.661Z,25.96
2022-12-18T14:31:28.691Z,25.86
2022-12-18T14:33:55.579Z,26.30
2022-12-18T14:36:25.542Z,25.96
2022-12-18T14:42:39.979Z,26.18
2022-12-18T14:45:41.394Z,26.36
2022-12-18T14:48:18.240Z,25.53
2022-12-18T14:50:58.628Z,26.19
2022-12-18T14:53:35.290Z,24.87
2022-12-18T14:56:02.629Z,27.36
2022-12-18T14:58:29.485Z,27.02
2022-12-18T15:00:56.295Z,26.59
2022-12-18T15:03:23.641Z,25.36
2022-12-18T15:05:51.816Z,26.41
2022-12-18T15:08:35.165Z,25.79
2022-12-18T15:11:26.031Z,25.83
2022-12-18T15:13:53.318Z,25.71
2022-12-18T15:16:20.157Z,25.76
2022-12-18T15:18:46.949Z,26.24
2022-12-18T15:21:18.246Z,26.25
2022-12-18T15:23:45.221Z,25.98
2022-12-18T15:26:16.361Z,26.58
2022-12-18T15:28:47.597Z,27.36
2022-12-18T15:31:14.214Z,26.81
2022-12-18T15:33:45.447Z,26.92
2022-12-18T15:36:14.115Z,26.13
2022-12-18T15:38:40.872Z,26.82
2022-12-18T15:41:14.385Z,26.52
2022-12-18T15:43:41.731Z,26.17
2022-12-18T15:46:18.782Z,26.48
2022-12-18T15:48:57.983Z,26.23
2022-12-18T15:51:36.581Z,27.52
2022-12-18T15:54:05.968Z,26.79
2022-12-18T15:56:32.898Z,27.07
2022-12-18T15:59:01.615Z,26.61
2022-12-18T16:01:30.306Z,25.88
2022-12-18T16:03:57.780Z,25.66
2022-12-18T16:06:25.073Z,26.14
2022-12-18T16:08:54.469Z,25.55
2022-12-18T16:11:29.753Z,27.00
2022-12-18T16:13:56.877Z,26.89
2022-12-18T16:16:26.103Z,27.38
2022-12-18T16:18:54.008Z,26.65
2022-12-18T16:21:22.254Z,27.66
2022-12-18T16:23:49.989Z,33.70
2022-12-18T16:26:17.124Z,29.14
2022-12-18T16:28:48.615Z,29.70
2022-12-18T16:31:15.801Z,29.73
2022-12-18T16:33:44.421Z,29.82
2022-12-18T16:36:12.004Z,29.18
2022-12-18T16:38:39.074Z,30.11
2022-12-18T16:41:21.158Z,30.61
2022-12-18T16:43:54.449Z,29.59
2022-12-18T16:46:22.006Z,29.88
2022-12-18T16:48:49.118Z,28.86
2022-12-18T16:51:16.834Z,28.31
2022-12-18T16:53:45.167Z,29.29
2022-12-18T16:56:12.349Z,29.02
2022-12-18T16:58:39.059Z,27.73
2022-12-18T17:01:09.339Z,28.01
2022-12-18T17:03:36.963Z,28.34
2022-12-18T17:06:07.550Z,27.68
2022-12-18T17:08:35.226Z,28.79
2022-12-18T17:11:07.508Z,29.14
2022-12-18T17:13:34.420Z,28.37
2022-12-18T17:16:05.385Z,29.72
2022-12-18T17:18:33.529Z,31.34
2022-12-18T17:21:01.616Z,30.79
2022-12-18T17:23:28.969Z,34.26
2022-12-18T17:25:57.622Z,33.78
2022-12-18T17:28:25.899Z,31.14
2022-12-18T17:30:53.660Z,29.19
2022-12-18T17:33:41.127Z,29.20
2022-12-18T17:36:08.530Z,31.38
2022-12-18T17:38:35.627Z,31.08
2022-12-18T17:41:09.443Z,30.75
2022-12-18T17:43:36.600Z,31.43
2022-12-18T17:46:03.714Z,30.62
2022-12-18T17:48:31.131Z,30.68
2022-12-18T17:51:02.086Z,34.34
2022-12-18T17:53:29.071Z,31.67
2022-12-18T17:55:59.081Z,30.64
2022-12-18T17:58:40.600Z,30.67
2022-12-18T18:01:07.784Z,31.45
2022-12-18T18:03:37.018Z,33.51
2022-12-18T18:06:04.062Z,37.04
2022-12-18T18:08:30.870Z,40.59
2022-12-18T18:10:58.193Z,35.03
2022-12-18T18:13:27.936Z,33.71
2022-12-18T18:15:57.798Z,34.05
2022-12-18T18:18:24.874Z,32.54
2022-12-18T18:20:51.718Z,32.64
2022-12-18T18:23:21.177Z,33.94
2022-12-18T18:25:54.278Z,39.75
2022-12-18T18:28:22.603Z,47.53
2022-12-18T18:30:49.533Z,33.73
2022-12-18T18:33:16.727Z,32.65
2022-12-18T18:35:59.122Z,31.30
2022-12-18T18:38:26.174Z,30.05
2022-12-18T18:41:02.724Z,31.51
2022-12-18T18:43:29.474Z,30.26
2022-12-18T18:46:00.126Z,30.22
2022-12-18T18:48:42.394Z,32.25
2022-12-18T18:51:21.341Z,32.16
2022-12-18T18:53:49.448Z,30.24
2022-12-18T18:56:56.428Z,29.75
2022-12-18T18:59:05.724Z,30.53
2022-12-18T19:01:33.052Z,30.99
2022-12-18T19:04:03.259Z,31.13
2022-12-18T19:06:33.353Z,31.93
2022-12-18T19:09:01.813Z,32.30
2022-12-18T19:11:33.174Z,33.19
2022-12-18T19:14:07.193Z,31.92
2022-12-18T19:16:35.563Z,31.40
2022-12-18T19:19:07.931Z,32.59
2022-12-18T19:21:39.101Z,31.78
2022-12-18T19:24:07.105Z,31.23
2022-12-18T19:26:34.384Z,31.61
2022-12-18T19:29:02.732Z,31.64
2022-12-18T19:31:35.697Z,32.58
2022-12-18T19:34:04.028Z,32.78
2022-12-18T19:36:31.388Z,32.20
2022-12-18T19:38:59.676Z,32.47
2022-12-18T19:41:29.158Z,34.95
2022-12-18T19:43:59.087Z,38.00
2022-12-18T19:46:25.865Z,40.29
2022-12-18T19:48:53.730Z,35.51
2022-12-18T19:51:28.468Z,33.44
2022-12-18T19:53:58.923Z,32.92
2022-12-18T19:56:32.917Z,31.90
2022-12-18T19:59:01.527Z,31.99
2022-12-18T20:01:29.248Z,31.85
2022-12-18T20:03:58.868Z,30.93
2022-12-18T20:06:34.248Z,30.50
2022-12-18T20:09:05.556Z,29.61
2022-12-18T20:11:33.077Z,30.04
2022-12-18T20:14:00.141Z,30.46
2022-12-18T20:16:28.462Z,28.39
2022-12-18T20:18:57.477Z,27.85
2022-12-18T20:21:24.702Z,27.04
2022-12-18T20:23:52.418Z,26.40
2022-12-18T20:26:20.017Z,26.33
2022-12-18T20:28:47.008Z,26.34
2022-12-18T20:31:14.313Z,25.92
2022-12-18T20:33:42.254Z,24.53
2022-12-18T20:36:12.728Z,24.72
2022-12-18T20:38:41.038Z,24.28
2022-12-18T20:41:13.631Z,23.86
2022-12-18T20:43:41.141Z,23.19
2022-12-18T20:46:12.339Z,23.11
2022-12-18T20:49:29.455Z,22.96
2022-12-18T20:52:02.433Z,22.60
2022-12-18T20:54:30.424Z,22.17
2022-12-18T20:56:57.721Z,21.75
2022-12-18T20:59:26.265Z,21.70
2022-12-18T21:02:02.253Z,22.32
2022-12-18T21:04:29.388Z,22.05
2022-12-18T21:07:02.333Z,21.56
2022-12-18T21:09:37.605Z,21.83
2022-12-18T21:12:13.946Z,21.26
2022-12-18T21:14:46.377Z,20.57
2022-12-18T21:17:15.829Z,20.04
2022-12-18T21:19:43.292Z,20.81
2022-12-18T21:22:13.510Z,21.74
2022-12-18T21:24:40.646Z,21.03
2022-12-18T21:27:07.562Z,21.14
2022-12-18T21:29:34.547Z,20.96
2022-12-18T21:32:02.578Z,19.83
2022-12-18T21:34:32.546Z,20.22
2022-12-18T21:37:00.495Z,20.80
2022-12-18T21:39:29.970Z,19.84
2022-12-18T21:41:57.430Z,19.62
2022-12-18T21:44:24.675Z,21.15
2022-12-18T21:47:04.546Z,21.26
2022-12-18T21:49:41.596Z,20.52
2022-12-18T21:52:10.701Z,19.93
2022-12-18T21:54:37.702Z,18.70
2022-12-18T21:57:07.700Z,19.29
2022-12-18T21:59:39.013Z,19.30
2022-12-18T22:02:26.360Z,22.05
2022-12-18T22:04:54.007Z,18.59
2022-12-18T22:07:30.257Z,18.90
2022-12-18T22:09:57.755Z,19.60
2022-12-18T22:12:29.148Z,18.50
2022-12-18T22:14:56.358Z,18.48
2022-12-18T22:17:23.973Z,18.63
2022-12-18T22:19:53.778Z,19.22
2022-12-18T22:22:20.882Z,19.39
2022-12-18T22:24:53.312Z,18.86
2022-12-18T22:27:25.036Z,17.84
2022-12-18T22:29:51.748Z,17.89
2022-12-18T22:32:24.866Z,18.02
2022-12-18T22:35:07.287Z,18.05
2022-12-18T22:37:38.727Z,19.03
2022-12-18T22:40:07.523Z,19.50
2022-12-18T22:42:51.334Z,19.51
2022-12-18T22:45:19.768Z,19.99
2022-12-18T22:47:46.634Z,18.99
2022-12-18T22:50:14.267Z,19.42
2022-12-18T22:52:41.013Z,19.23
2022-12-18T22:55:09.671Z,18.25
2022-12-18T22:57:36.700Z,18.57
2022-12-18T23:00:05.535Z,18.72
2022-12-18T23:02:33.366Z,18.66
2022-12-18T23:05:00.283Z,17.89
2022-12-18T23:07:38.435Z,18.32
2022-12-18T23:10:06.698Z,18.10
2022-12-18T23:12:33.638Z,17.53
2022-12-18T23:15:03.911Z,16.83
2022-12-18T23:17:30.881Z,16.77
2022-12-18T23:19:58.258Z,17.03
2022-12-18T23:22:25.940Z,17.44
2022-12-18T23:24:52.963Z,16.76
2022-12-18T23:27:21.055Z,16.85
2022-12-18T23:29:48.626Z,17.91
2022-12-18T23:32:16.069Z,17.71
2022-12-18T23:34:43.218Z,19.05
2022-12-18T23:37:10.448Z,17.73
2022-12-18T23:39:37.179Z,17.49
2022-12-18T23:42:04.558Z,17.58
2022-12-18T23:44:32.995Z,17.16
2022-12-18T23:46:59.899Z,17.34
2022-12-18T23:49:27.017Z,16.88
2022-12-18T23:51:54.450Z,16.48
2022-12-18T23:54:25.595Z,16.26
2022-12-18T23:57:00.551Z,18.31
2022-12-18T23:59:29.724Z,19.15
